createdAt,value
2023-10-01T00:04:45.764Z,100.00
2023-10-01T00:09:49.147Z,100.00
2023-10-01T00:14:53.965Z,100.00
2023-10-01T00:19:58.626Z,100.00
2023-10-01T00:25:02.015Z,100.00
2023-10-01T00:30:07.875Z,100.00
2023-10-01T00:35:13.459Z,100.00
2023-10-01T00:40:18.587Z,100.00
2023-10-01T00:45:22.026Z,100.00
2023-10-01T00:50:26.676Z,100.00
2023-10-01T00:55:31.348Z,100.00
2023-10-01T01:00:35.825Z,100.00
2023-10-01T01:05:51.706Z,100.00
2023-10-01T01:10:55.529Z,100.00
2023-10-01T01:16:01.657Z,100.00
2023-10-01T01:21:11.252Z,100.00
2023-10-01T01:26:16.244Z,100.00
2023-10-01T01:31:20.365Z,100.00
2023-10-01T01:36:23.955Z,100.00
2023-10-01T01:41:29.990Z,100.00
2023-10-01T01:46:33.301Z,100.00
2023-10-01T01:51:36.684Z,100.00
2023-10-01T01:56:41.268Z,100.00
2023-10-01T02:01:44.933Z,100.00
2023-10-01T02:06:48.730Z,100.00
2023-10-01T02:11:54.025Z,100.00
2023-10-01T02:17:15.054Z,100.00
2023-10-01T02:22:19.125Z,100.00
2023-10-01T02:27:29.754Z,100.00
2023-10-01T02:32:33.049Z,100.00
2023-10-01T02:37:36.918Z,100.00
2023-10-01T02:42:44.455Z,100.00
2023-10-01T02:48:08.652Z,100.00
2023-10-01T02:53:12.211Z,100.00
2023-10-01T02:58:21.704Z,100.00
2023-10-01T03:03:34.377Z,100.00
2023-10-01T03:08:58.760Z,100.00
2023-10-01T03:14:09.819Z,100.00
2023-10-01T03:19:26.223Z,100.00
2023-10-01T03:24:30.576Z,100.00
2023-10-01T03:29:36.880Z,100.00
2023-10-01T03:34:45.158Z,100.00
2023-10-01T03:39:51.359Z,100.00
2023-10-01T03:45:09.867Z,100.00
2023-10-01T03:50:16.350Z,100.00
2023-10-01T03:55:28.558Z,100.00
2023-10-01T04:00:35.986Z,100.00
2023-10-01T04:05:39.277Z,100.00
2023-10-01T04:10:45.028Z,100.00
2023-10-01T04:15:56.605Z,100.00
2023-10-01T04:21:18.135Z,100.00
2023-10-01T04:26:21.477Z,100.00
2023-10-01T04:31:40.292Z,100.00
2023-10-01T04:36:44.622Z,100.00
2023-10-01T04:41:48.204Z,100.00
2023-10-01T04:46:56.534Z,100.00
2023-10-01T04:52:02.079Z,100.00
2023-10-01T04:57:05.528Z,100.00
2023-10-01T05:02:22.987Z,100.00
2023-10-01T05:07:26.788Z,100.00
2023-10-01T05:12:32.326Z,100.00
2023-10-01T05:17:41.408Z,100.00
2023-10-01T05:22:52.350Z,100.00
2023-10-01T05:27:56.670Z,100.00
2023-10-01T05:33:02.418Z,100.00
2023-10-01T05:38:08.652Z,100.00
2023-10-01T05:43:15.635Z,100.00
2023-10-01T05:48:21.494Z,100.00
2023-10-01T05:53:25.496Z,100.00
2023-10-01T05:58:28.987Z,100.00
2023-10-01T06:03:35.226Z,100.00
2023-10-01T06:08:51.138Z,100.00
2023-10-01T06:13:58.094Z,100.00
2023-10-01T06:19:03.081Z,100.00
2023-10-01T06:24:11.535Z,100.00
2023-10-01T06:29:15.282Z,100.00
2023-10-01T06:34:23.016Z,100.00
2023-10-01T06:39:26.861Z,100.00
2023-10-01T06:44:30.193Z,100.00
2023-10-01T06:49:34.840Z,100.00
2023-10-01T06:54:38.411Z,100.00
2023-10-01T06:59:42.703Z,100.00
2023-10-01T07:05:07.845Z,100.00
2023-10-01T07:10:21.409Z,100.00
2023-10-01T07:15:27.042Z,100.00
2023-10-01T07:20:31.708Z,100.00
2023-10-01T07:25:40.317Z,100.00
2023-10-01T07:30:47.685Z,100.00
2023-10-01T07:36:01.748Z,100.00
2023-10-01T07:41:14.268Z,98.31
2023-10-01T07:46:20.182Z,98.60
2023-10-01T07:51:28.747Z,94.22
2023-10-01T07:56:34.295Z,89.41
2023-10-01T08:01:44.589Z,86.84
2023-10-01T08:06:50.995Z,85.25
2023-10-01T08:12:07.658Z,88.03
2023-10-01T08:17:11.205Z,80.71
2023-10-01T08:22:16.998Z,84.57
2023-10-01T08:27:33.209Z,82.93
2023-10-01T08:32:40.633Z,84.12
2023-10-01T08:37:50.791Z,80.15
2023-10-01T08:42:54.470Z,77.38
2023-10-01T08:48:01.347Z,76.00
2023-10-01T08:53:12.394Z,74.70
2023-10-01T08:58:17.312Z,72.40
2023-10-01T09:03:30.513Z,70.96
2023-10-01T09:08:43.989Z,68.43
2023-10-01T09:13:48.803Z,67.81
2023-10-01T09:19:05.461Z,65.13
2023-10-01T09:24:39.842Z,62.46
2023-10-01T09:29:46.078Z,62.31
2023-10-01T09:34:58.804Z,59.19
2023-10-01T09:40:15.259Z,57.33
2023-10-01T09:45:28.809Z,56.71
2023-10-01T09:50:41.006Z,56.55
2023-10-01T09:55:49.886Z,58.40
2023-10-01T10:00:54.881Z,54.90
2023-10-01T10:05:58.521Z,55.71
2023-10-01T10:11:07.383Z,53.28
2023-10-01T10:16:28.688Z,52.09
2023-10-01T10:21:37.690Z,52.47
2023-10-01T10:26:58.297Z,53.07
2023-10-01T10:32:12.003Z,53.19
2023-10-01T10:37:49.467Z,52.14
2023-10-01T10:43:21.157Z,50.43
2023-10-01T10:48:25.794Z,49.05
2023-10-01T10:53:44.162Z,48.64
2023-10-01T10:58:54.875Z,46.32
2023-10-01T11:03:59.413Z,47.58
2023-10-01T11:09:04.534Z,48.05
2023-10-01T11:14:17.411Z,48.10
2023-10-01T11:19:27.162Z,48.05
2023-10-01T11:24:32.294Z,49.03
2023-10-01T11:29:36.943Z,49.70
2023-10-01T11:34:47.031Z,49.25
2023-10-01T11:39:53.743Z,48.68
2023-10-01T11:44:58.603Z,49.82
2023-10-01T11:50:08.653Z,49.04
2023-10-01T11:55:21.482Z,50.66
2023-10-01T12:00:53.899Z,49.89
2023-10-01T12:05:58.731Z,49.70
2023-10-01T12:11:22.524Z,50.85
2023-10-01T12:16:31.208Z,48.97
2023-10-01T12:21:35.303Z,49.70
2023-10-01T12:26:40.631Z,48.07
2023-10-01T12:31:47.185Z,49.95
2023-10-01T12:36:52.781Z,48.57
2023-10-01T12:41:59.265Z,50.40
2023-10-01T12:47:08.731Z,50.48
2023-10-01T12:52:16.096Z,48.51
2023-10-01T12:57:23.619Z,50.63
2023-10-01T13:02:44.580Z,50.26
2023-10-01T13:07:50.188Z,50.24
2023-10-01T13:12:57.938Z,50.24
2023-10-01T13:18:05.793Z,50.66
2023-10-01T13:23:09.267Z,50.03
2023-10-01T13:28:19.361Z,50.60
2023-10-01T13:33:26.577Z,51.19
2023-10-01T13:38:57.915Z,51.72
2023-10-01T13:44:19.221Z,51.70
2023-10-01T13:49:41.864Z,51.17
2023-10-01T13:55:02.645Z,50.91
2023-10-01T14:00:25.672Z,51.81
2023-10-01T14:05:52.227Z,52.81
2023-10-01T14:10:55.772Z,51.88
2023-10-01T14:16:13.197Z,51.40
2023-10-01T14:21:19.088Z,50.74
2023-10-01T14:26:28.220Z,51.99
2023-10-01T14:31:51.388Z,52.68
2023-10-01T14:37:01.665Z,52.96
2023-10-01T14:42:05.725Z,54.10
2023-10-01T14:47:19.140Z,52.66
2023-10-01T14:52:25.004Z,54.58
2023-10-01T14:57:31.182Z,53.62
2023-10-01T15:02:37.617Z,54.92
2023-10-01T15:07:42.817Z,54.24
2023-10-01T15:13:03.101Z,55.65
2023-10-01T15:18:18.725Z,59.13
2023-10-01T15:23:23.780Z,57.89
2023-10-01T15:28:28.659Z,60.31
2023-10-01T15:33:32.170Z,62.99
2023-10-01T15:38:37.231Z,66.24
2023-10-01T15:43:51.882Z,67.46
2023-10-01T15:48:56.163Z,70.19
2023-10-01T15:54:01.776Z,70.39
2023-10-01T15:59:12.309Z,71.81
2023-10-01T16:04:17.254Z,70.49
2023-10-01T16:09:22.277Z,76.26
2023-10-01T16:14:28.136Z,78.18
2023-10-01T16:19:31.857Z,77.76
2023-10-01T16:24:40.412Z,79.29
2023-10-01T16:29:44.622Z,86.43
2023-10-01T16:34:48.098Z,89.73
2023-10-01T16:39:52.826Z,90.17
2023-10-01T16:44:58.555Z,94.77
2023-10-01T16:50:05.381Z,94.72
2023-10-01T16:55:10.672Z,100.00
2023-10-01T17:00:17.146Z,100.00
2023-10-01T17:05:21.044Z,100.00
2023-10-01T17:10:26.581Z,100.00
2023-10-01T17:15:42.801Z,100.00
2023-10-01T17:20:52.209Z,100.00
2023-10-01T17:26:01.769Z,100.00
2023-10-01T17:31:08.773Z,100.00
2023-10-01T17:36:13.564Z,100.00
2023-10-01T17:41:23.364Z,100.00
2023-10-01T17:46:33.383Z,100.00
2023-10-01T17:51:45.190Z,100.00
2023-10-01T17:56:49.991Z,100.00
2023-10-01T18:01:53.428Z,100.00
2023-10-01T18:06:56.978Z,100.00
2023-10-01T18:12:15.394Z,100.00
2023-10-01T18:17:19.043Z,100.00
2023-10-01T18:22:26.498Z,100.00
2023-10-01T18:27:31.528Z,100.00
2023-10-01T18:32:36.193Z,100.00
2023-10-01T18:37:39.626Z,100.00
2023-10-01T18:42:44.541Z,100.00
2023-10-01T18:47:49.432Z,100.00
2023-10-01T18:52:55.718Z,100.00
2023-10-01T18:58:00.475Z,100.00
2023-10-01T19:03:03.854Z,100.00
2023-10-01T19:08:08.433Z,100.00
2023-10-01T19:13:14.531Z,100.00
2023-10-01T19:18:20.615Z,100.00
2023-10-01T19:23:31.815Z,100.00
2023-10-01T19:28:37.486Z,100.00
2023-10-01T19:33:40.863Z,100.00
2023-10-01T19:38:48.727Z,100.00
2023-10-01T19:43:56.150Z,100.00
2023-10-01T19:49:01.177Z,100.00
2023-10-01T19:54:07.293Z,100.00
2023-10-01T19:59:17.655Z,100.00
2023-10-01T20:04:22.438Z,100.00
2023-10-01T20:09:28.227Z,100.00
2023-10-01T20:14:36.593Z,100.00
2023-10-01T20:19:44.527Z,100.00
2023-10-01T20:24:52.866Z,100.00
2023-10-01T20:29:57.971Z,100.00
2023-10-01T20:35:01.533Z,100.00
2023-10-01T20:40:11.280Z,100.00
2023-10-01T20:45:24.535Z,100.00
2023-10-01T20:50:32.573Z,100.00
2023-10-01T20:55:36.626Z,100.00
2023-10-01T21:00:43.340Z,100.00
2023-10-01T21:05:47.548Z,100.00
2023-10-01T21:10:51.366Z,100.00
2023-10-01T21:16:02.593Z,100.00
2023-10-01T21:21:06.291Z,100.00
2023-10-01T21:26:09.751Z,100.00
2023-10-01T21:31:21.401Z,100.00
2023-10-01T21:36:24.849Z,100.00
2023-10-01T21:41:35.721Z,100.00
2023-10-01T21:46:41.107Z,100.00
2023-10-01T21:51:47.271Z,100.00
2023-10-01T21:56:51.370Z,100.00
2023-10-01T22:02:03.021Z,100.00
2023-10-01T22:07:07.138Z,100.00
2023-10-01T22:12:15.488Z,100.00
2023-10-01T22:17:35.489Z,100.00
2023-10-01T22:22:50.517Z,100.00
2023-10-01T22:28:03.583Z,100.00
2023-10-01T22:33:17.045Z,100.00
2023-10-01T22:38:22.654Z,100.00
2023-10-01T22:43:28.390Z,100.00
2023-10-01T22:48:44.744Z,100.00
2023-10-01T22:53:48.188Z,100.00
2023-10-01T22:58:51.545Z,100.00
2023-10-01T23:04:10.504Z,100.00
2023-10-01T23:09:19.943Z,100.00
2023-10-01T23:14:23.733Z,100.00
2023-10-01T23:19:35.832Z,100.00
2023-10-01T23:24:52.994Z,100.00
2023-10-01T23:29:56.279Z,100.00
2023-10-01T23:35:01.519Z,100.00
2023-10-01T23:40:09.677Z,100.00
2023-10-01T23:45:17.804Z,100.00
2023-10-01T23:50:32.061Z,100.00
2023-10-01T23:55:37.132Z,100.00
